Time;durP1;ratioP1;P1;durP2;ratioP2;P2;SDS_P1;SDS_P2;PMS_P1;PMS_P2;Temp;Humidity;BMP_temperature;BMP_pressure;BME280_temperature;BME280_humidity;BME280_pressure;Samples;Min_cycle;Max_cycle;Signal;HPM_P1;HPM_P2
2023/11/25 00:00:06;;;;;;;9.25;7.20;;;;;;;;;;5023283;28;20184;-43
2023/11/25 00:02:32;;;;;;;9.50;7.18;;;;;;;;;;5025366;28;20711;-43
2023/11/25 00:04:58;;;;;;;10.43;7.70;;;;;;;;;;5023776;28;20594;-43
2023/11/25 00:07:24;;;;;;;13.20;9.37;;;;;;;;;;5025119;28;20441;-43
2023/11/25 00:09:50;;;;;;;11.27;8.10;;;;;;;;;;5025669;28;20421;-43
2023/11/25 00:12:16;;;;;;;12.18;9.00;;;;;;;;;;5023024;28;20449;-43
2023/11/25 00:14:43;;;;;;;10.83;7.60;;;;;;;;;;5022875;28;20245;-43
2023/11/25 00:17:09;;;;;;;10.43;7.00;;;;;;;;;;5023441;28;20773;-43
2023/11/25 00:19:35;;;;;;;8.80;5.13;;;;;;;;;;5023072;28;20255;-43
2023/11/25 00:22:01;;;;;;;10.75;7.00;;;;;;;;;;5022567;28;20418;-43
2023/11/25 00:24:27;;;;;;;10.43;6.30;;;;;;;;;;5021921;28;20200;-43
2023/11/25 00:26:53;;;;;;;11.07;7.67;;;;;;;;;;5026415;28;20949;-43
2023/11/25 00:29:19;;;;;;;10.70;7.27;;;;;;;;;;5021011;28;20953;-43
2023/11/25 00:31:49;;;;;;;9.33;5.73;;;;;;;;;;5021608;28;20985;-43
2023/11/25 00:34:15;;;;;;;9.15;6.35;;;;;;;;;;5022428;28;20408;-43
2023/11/25 00:36:41;;;;;;;9.63;7.18;;;;;;;;;;5021410;28;20196;-43
2023/11/25 00:39:07;;;;;;;10.80;7.37;;;;;;;;;;5022674;28;20184;-43
2023/11/25 00:41:34;;;;;;;11.73;10.30;;;;;;;;;;5026640;28;20519;-43
2023/11/25 00:44:00;;;;;;;10.15;7.00;;;;;;;;;;5025612;28;20463;-43
2023/11/25 00:46:27;;;;;;;11.20;7.23;;;;;;;;;;5025219;28;20218;-44
2023/11/25 00:48:54;;;;;;;10.48;6.95;;;;;;;;;;5032839;28;20399;-44
2023/11/25 00:51:20;;;;;;;10.40;7.63;;;;;;;;;;5021449;28;20358;-43
2023/11/25 00:53:46;;;;;;;10.63;8.20;;;;;;;;;;5021468;28;20176;-44
2023/11/25 00:56:12;;;;;;;10.03;6.73;;;;;;;;;;5029361;28;20494;-43
2023/11/25 00:58:38;;;;;;;11.50;9.10;;;;;;;;;;5013362;28;20426;-43
2023/11/25 01:01:04;;;;;;;11.37;10.17;;;;;;;;;;5013974;28;20403;-43
2023/11/25 01:03:30;;;;;;;10.80;7.87;;;;;;;;;;5028321;28;20442;-44
2023/11/25 01:05:57;;;;;;;10.45;6.40;;;;;;;;;;5021266;28;20463;-44
2023/11/25 01:08:26;;;;;;;9.20;5.72;;;;;;;;;;5019956;28;20192;-43
2023/11/25 01:10:51;;;;;;;10.35;6.90;;;;;;;;;;5028535;28;20692;-44
2023/11/25 01:13:17;;;;;;;9.67;5.83;;;;;;;;;;5013353;28;20271;-43
2023/11/25 01:15:44;;;;;;;11.30;8.20;;;;;;;;;;4993839;28;20416;-44
2023/11/25 01:18:10;;;;;;;22.13;14.00;;;;;;;;;;5007232;28;20438;-43
2023/11/25 01:20:36;;;;;;;10.18;6.32;;;;;;;;;;5022114;28;20718;-43
2023/11/25 01:23:02;;;;;;;10.25;6.18;;;;;;;;;;5022532;28;20188;-44
2023/11/25 01:25:28;;;;;;;13.98;9.05;;;;;;;;;;5020594;28;20204;-43
2023/11/25 01:27:54;;;;;;;8.40;5.93;;;;;;;;;;5024272;28;20727;-44
2023/11/25 01:30:20;;;;;;;9.17;6.23;;;;;;;;;;5017959;28;21114;-43
2023/11/25 01:32:46;;;;;;;10.23;6.80;;;;;;;;;;5024258;28;20406;-43
2023/11/25 01:35:12;;;;;;;11.97;9.10;;;;;;;;;;5022346;28;20290;-43
2023/11/25 01:37:38;;;;;;;9.80;8.50;;;;;;;;;;5023558;28;20426;-43
2023/11/25 01:40:06;;;;;;;11.07;9.77;;;;;;;;;;5021339;28;20407;-43
2023/11/25 01:42:32;;;;;;;8.82;7.00;;;;;;;;;;5023329;28;20423;-43
2023/11/25 01:44:58;;;;;;;10.70;9.23;;;;;;;;;;5022036;28;20199;-44
2023/11/25 01:47:24;;;;;;;11.37;7.80;;;;;;;;;;5020540;28;20943;-44
2023/11/25 01:49:50;;;;;;;9.60;6.18;;;;;;;;;;5025914;28;20419;-44
2023/11/25 01:52:17;;;;;;;9.60;6.07;;;;;;;;;;5020725;28;20171;-43
2023/11/25 01:54:43;;;;;;;11.65;8.70;;;;;;;;;;5021617;28;20203;-43
2023/11/25 01:57:10;;;;;;;8.65;6.35;;;;;;;;;;5021567;28;20271;-44
2023/11/25 01:59:36;;;;;;;11.23;8.30;;;;;;;;;;5020794;28;20226;-43
2023/11/25 02:02:04;;;;;;;12.25;8.57;;;;;;;;;;5015219;28;20204;-44
2023/11/25 02:04:32;;;;;;;10.15;7.40;;;;;;;;;;5025883;28;20546;-44
2023/11/25 02:06:58;;;;;;;11.02;8.50;;;;;;;;;;5024720;28;20203;-44
2023/11/25 02:09:24;;;;;;;9.48;6.75;;;;;;;;;;5018917;28;20163;-44
2023/11/25 02:11:56;;;;;;;9.35;6.53;;;;;;;;;;5018696;28;20176;-44
2023/11/25 02:14:22;;;;;;;10.15;6.82;;;;;;;;;;5026106;28;20176;-43
2023/11/25 02:16:48;;;;;;;10.95;8.88;;;;;;;;;;5019949;28;20204;-44
2023/11/25 02:19:15;;;;;;;11.97;10.67;;;;;;;;;;5020772;28;20590;-43
2023/11/25 02:21:41;;;;;;;10.73;9.30;;;;;;;;;;5023114;28;20477;-43
2023/11/25 02:24:07;;;;;;;12.13;10.55;;;;;;;;;;5023327;28;20302;-43
2023/11/25 02:26:34;;;;;;;12.00;10.45;;;;;;;;;;5018263;28;20172;-44
2023/11/25 02:29:00;;;;;;;9.15;7.38;;;;;;;;;;5023251;28;20720;-44
2023/11/25 02:31:26;;;;;;;9.68;6.93;;;;;;;;;;5031137;28;20678;-43
2023/11/25 02:33:52;;;;;;;10.20;8.13;;;;;;;;;;5016861;28;20184;-44
2023/11/25 02:36:18;;;;;;;11.53;8.67;;;;;;;;;;5002076;28;20977;-43
2023/11/25 02:38:45;;;;;;;9.90;8.80;;;;;;;;;;5002241;28;20457;-44
2023/11/25 02:41:12;;;;;;;13.13;11.25;;;;;;;;;;5013751;28;20450;-44
2023/11/25 02:43:38;;;;;;;11.27;9.70;;;;;;;;;;4996345;28;20164;-44
2023/11/25 02:46:05;;;;;;;11.10;9.07;;;;;;;;;;5013702;28;20203;-44
2023/11/25 02:48:32;;;;;;;9.00;7.50;;;;;;;;;;5001814;28;20224;-43
2023/11/25 02:50:58;;;;;;;11.18;9.38;;;;;;;;;;5006150;28;20226;-43
2023/11/25 02:53:24;;;;;;;11.40;9.90;;;;;;;;;;5009945;28;20193;-43
2023/11/25 02:55:50;;;;;;;12.17;10.10;;;;;;;;;;4997490;28;20408;-43
2023/11/25 02:58:17;;;;;;;11.43;9.80;;;;;;;;;;5015576;28;20833;-44
2023/11/25 03:00:43;;;;;;;10.93;9.10;;;;;;;;;;4997938;28;20169;-43
2023/11/25 03:03:16;;;;;;;11.95;9.00;;;;;;;;;;5009385;28;20264;-43
2023/11/25 03:05:42;;;;;;;11.40;7.03;;;;;;;;;;5004770;28;20243;-42
2023/11/25 03:08:16;;;;;;;9.20;7.18;;;;;;;;;;5002232;28;20195;-43
2023/11/25 03:10:43;;;;;;;12.10;9.68;;;;;;;;;;5011987;28;20200;-43
2023/11/25 03:13:10;;;;;;;10.43;7.18;;;;;;;;;;4995943;28;20189;-43
2023/11/25 03:15:37;;;;;;;15.60;12.93;;;;;;;;;;5014578;28;20175;-43
2023/11/25 03:18:05;;;;;;;9.85;8.57;;;;;;;;;;4999746;28;20237;-43
2023/11/25 03:20:31;;;;;;;10.77;7.85;;;;;;;;;;5007319;28;20181;-44
2023/11/25 03:22:57;;;;;;;10.23;7.50;;;;;;;;;;5014767;28;20177;-44
2023/11/25 03:25:25;;;;;;;14.10;10.63;;;;;;;;;;5011229;28;20463;-43
2023/11/25 03:27:51;;;;;;;10.05;6.82;;;;;;;;;;4995482;28;20207;-43
2023/11/25 03:30:17;;;;;;;11.82;8.43;;;;;;;;;;5014633;28;20251;-44
2023/11/25 03:32:43;;;;;;;9.45;7.20;;;;;;;;;;4999431;28;20199;-44
2023/11/25 03:35:10;;;;;;;11.23;7.83;;;;;;;;;;5006587;28;20640;-43
2023/11/25 03:37:36;;;;;;;10.93;6.88;;;;;;;;;;5007014;28;20914;-44
2023/11/25 03:40:07;;;;;;;9.30;6.90;;;;;;;;;;4999047;28;20242;-43
2023/11/25 03:42:34;;;;;;;11.05;9.23;;;;;;;;;;5015051;28;20879;-44
2023/11/25 03:45:01;;;;;;;10.88;9.18;;;;;;;;;;4995493;28;20200;-43
2023/11/25 03:47:28;;;;;;;10.45;7.65;;;;;;;;;;5010519;28;20204;-44
2023/11/25 03:49:54;;;;;;;10.82;7.45;;;;;;;;;;5001496;28;20575;-44
2023/11/25 03:52:21;;;;;;;10.77;7.95;;;;;;;;;;5003123;28;20180;-43
2023/11/25 03:54:47;;;;;;;11.55;7.80;;;;;;;;;;5010408;28;20671;-44
2023/11/25 03:57:13;;;;;;;11.17;7.03;;;;;;;;;;4994958;28;20189;-43
2023/11/25 03:59:39;;;;;;;9.03;6.60;;;;;;;;;;5014494;28;20415;-43
2023/11/25 04:02:05;;;;;;;11.07;9.63;;;;;;;;;;5014032;28;20422;-43
2023/11/25 04:04:31;;;;;;;10.73;7.72;;;;;;;;;;5002829;28;20509;-44
2023/11/25 04:06:58;;;;;;;10.38;6.80;;;;;;;;;;5002091;28;20242;-44
2023/11/25 04:09:24;;;;;;;10.68;7.22;;;;;;;;;;5010536;28;20256;-44
2023/11/25 04:11:51;;;;;;;9.68;6.00;;;;;;;;;;4995083;28;20216;-43
2023/11/25 04:14:17;;;;;;;10.02;7.65;;;;;;;;;;5014174;28;20203;-44
2023/11/25 04:16:43;;;;;;;9.80;6.30;;;;;;;;;;4998644;28;20223;-43
2023/11/25 04:19:09;;;;;;;10.13;8.02;;;;;;;;;;5006031;28;20168;-44
2023/11/25 04:21:39;;;;;;;10.35;8.45;;;;;;;;;;5007330;28;20177;-44
2023/11/25 04:24:08;;;;;;;11.32;9.80;;;;;;;;;;5013464;28;20172;-43
2023/11/25 04:26:36;;;;;;;11.52;7.75;;;;;;;;;;5014003;28;20519;-44
2023/11/25 04:29:02;;;;;;;9.70;6.82;;;;;;;;;;4994363;28;20657;-43
2023/11/25 04:31:28;;;;;;;10.30;7.30;;;;;;;;;;5010532;28;20185;-43
2023/11/25 04:33:55;;;;;;;12.07;8.68;;;;;;;;;;5001800;28;20293;-44
2023/11/25 04:36:21;;;;;;;12.73;8.97;;;;;;;;;;5002169;28;20263;-44
2023/11/25 04:38:47;;;;;;;16.10;10.73;;;;;;;;;;5009440;28;20408;-44
2023/11/25 04:41:13;;;;;;;10.00;6.50;;;;;;;;;;5020181;28;20434;-44
2023/11/25 04:43:39;;;;;;;10.33;7.70;;;;;;;;;;5004219;28;20411;-44
2023/11/25 04:46:05;;;;;;;8.67;5.83;;;;;;;;;;5028499;28;20515;-43
2023/11/25 04:48:31;;;;;;;9.63;6.25;;;;;;;;;;5021719;28;20434;-44
2023/11/25 04:50:57;;;;;;;10.68;7.03;;;;;;;;;;5026544;28;20186;-44
2023/11/25 04:53:23;;;;;;;17.57;13.43;;;;;;;;;;5014745;28;20172;-44
2023/11/25 04:55:49;;;;;;;10.85;7.93;;;;;;;;;;5019933;28;20416;-44
2023/11/25 04:58:15;;;;;;;9.17;6.23;;;;;;;;;;5022825;28;20196;-43
2023/11/25 05:00:40;;;;;;;9.90;6.70;;;;;;;;;;5020166;28;20751;-44
2023/11/25 05:03:06;;;;;;;11.03;7.60;;;;;;;;;;5023765;28;20779;-43
2023/11/25 05:05:32;;;;;;;18.67;13.03;;;;;;;;;;5025574;28;20474;-44
2023/11/25 05:07:58;;;;;;;10.13;7.10;;;;;;;;;;5024904;28;20430;-43
2023/11/25 05:10:24;;;;;;;10.30;6.80;;;;;;;;;;5018779;28;20410;-43
2023/11/25 05:12:50;;;;;;;10.70;7.17;;;;;;;;;;5018453;28;20458;-44
2023/11/25 05:15:18;;;;;;;11.48;8.13;;;;;;;;;;5022947;28;20501;-43
2023/11/25 05:17:44;;;;;;;10.52;7.90;;;;;;;;;;5024025;28;20555;-44
2023/11/25 05:20:13;;;;;;;10.73;6.60;;;;;;;;;;5022177;28;20180;-43
2023/11/25 05:22:39;;;;;;;10.82;8.75;;;;;;;;;;5023189;28;20479;-43
2023/11/25 05:25:05;;;;;;;10.77;8.20;;;;;;;;;;5023243;28;20203;-43
2023/11/25 05:27:31;;;;;;;10.82;7.47;;;;;;;;;;5017439;28;20426;-44
2023/11/25 05:29:57;;;;;;;9.93;7.00;;;;;;;;;;5023936;28;20194;-44
2023/11/25 05:32:23;;;;;;;10.30;8.03;;;;;;;;;;5021964;28;20513;-43
2023/11/25 05:34:50;;;;;;;11.77;7.93;;;;;;;;;;5021570;28;20406;-43
2023/11/25 05:37:16;;;;;;;12.05;10.00;;;;;;;;;;5022393;28;20423;-44
2023/11/25 05:39:43;;;;;;;9.77;6.73;;;;;;;;;;5021416;28;20275;-44
2023/11/25 05:42:09;;;;;;;10.25;7.55;;;;;;;;;;5021490;28;20427;-43
2023/11/25 05:44:35;;;;;;;10.23;7.95;;;;;;;;;;5015293;28;20698;-43
2023/11/25 05:47:01;;;;;;;10.18;7.68;;;;;;;;;;5023542;28;20203;-43
2023/11/25 05:49:27;;;;;;;9.97;7.90;;;;;;;;;;5020521;28;20636;-43
2023/11/25 05:51:53;;;;;;;10.25;6.93;;;;;;;;;;5023894;28;20418;-43
2023/11/25 05:54:19;;;;;;;10.93;8.67;;;;;;;;;;5026334;28;20183;-44
2023/11/25 05:56:45;;;;;;;11.00;9.85;;;;;;;;;;5023101;28;20457;-43
2023/11/25 05:59:11;;;;;;;13.23;11.30;;;;;;;;;;5023009;28;20606;-44
2023/11/25 06:01:42;;;;;;;10.13;7.80;;;;;;;;;;5029386;28;20711;-43
2023/11/25 06:04:08;;;;;;;13.52;11.75;;;;;;;;;;5028416;28;20425;-44
2023/11/25 06:06:34;;;;;;;9.43;6.70;;;;;;;;;;5019569;28;20171;-43
2023/11/25 06:09:00;;;;;;;10.85;9.73;;;;;;;;;;5028012;28;20179;-44
2023/11/25 06:11:27;;;;;;;11.52;10.18;;;;;;;;;;5022823;28;20191;-43
2023/11/25 06:13:55;;;;;;;11.43;10.23;;;;;;;;;;5023576;28;20179;-43
2023/11/25 06:16:21;;;;;;;11.70;7.90;;;;;;;;;;5023275;28;20171;-43
2023/11/25 06:18:48;;;;;;;10.10;8.00;;;;;;;;;;5025247;28;20663;-44
2023/11/25 06:21:14;;;;;;;11.73;10.52;;;;;;;;;;5028184;28;20415;-43
2023/11/25 06:23:41;;;;;;;10.27;8.60;;;;;;;;;;5021612;28;20172;-43
2023/11/25 06:26:10;;;;;;;13.10;10.88;;;;;;;;;;5024486;28;20214;-43
2023/11/25 06:28:39;;;;;;;10.68;9.10;;;;;;;;;;5019738;28;20191;-43
2023/11/25 06:31:05;;;;;;;9.65;6.40;;;;;;;;;;5016929;28;20176;-43
2023/11/25 06:33:33;;;;;;;11.25;9.02;;;;;;;;;;5023290;28;20206;-43
2023/11/25 06:35:59;;;;;;;10.70;7.82;;;;;;;;;;5024659;28;20267;-43
2023/11/25 06:38:26;;;;;;;10.45;7.65;;;;;;;;;;5023008;28;20567;-44
2023/11/25 06:40:52;;;;;;;10.13;8.63;;;;;;;;;;5024443;28;20168;-43
2023/11/25 06:43:18;;;;;;;11.10;9.67;;;;;;;;;;5027863;28;20238;-43
2023/11/25 06:45:44;;;;;;;10.80;8.57;;;;;;;;;;5016607;28;20490;-43
2023/11/25 06:48:12;;;;;;;12.03;9.10;;;;;;;;;;5014330;28;20687;-43
2023/11/25 06:50:38;;;;;;;12.50;11.35;;;;;;;;;;5023071;28;20410;-43
2023/11/25 06:53:04;;;;;;;11.23;9.07;;;;;;;;;;5022628;28;20253;-44
2023/11/25 06:55:33;;;;;;;11.70;8.27;;;;;;;;;;5022645;28;20421;-44
2023/11/25 06:57:59;;;;;;;10.40;9.05;;;;;;;;;;5023138;28;20427;-44
2023/11/25 07:00:25;;;;;;;10.93;7.93;;;;;;;;;;5027682;28;20176;-43
2023/11/25 07:02:50;;;;;;;11.50;9.30;;;;;;;;;;5025613;28;20843;-43
2023/11/25 07:05:17;;;;;;;18.10;13.90;;;;;;;;;;5020785;28;21047;-43
2023/11/25 07:07:42;;;;;;;11.35;8.45;;;;;;;;;;5021046;28;20422;-43
2023/11/25 07:10:10;;;;;;;13.97;9.20;;;;;;;;;;5021760;28;20663;-43
2023/11/25 07:12:37;;;;;;;8.48;5.93;;;;;;;;;;5019600;28;20409;-43
2023/11/25 07:15:04;;;;;;;11.55;8.00;;;;;;;;;;5019687;28;20172;-43
2023/11/25 07:17:30;;;;;;;9.52;6.68;;;;;;;;;;5019040;28;20227;-43
2023/11/25 07:19:56;;;;;;;8.57;6.40;;;;;;;;;;5020979;28;20204;-45
2023/11/25 07:22:22;;;;;;;9.73;8.10;;;;;;;;;;5023548;28;20587;-43
2023/11/25 07:24:48;;;;;;;11.98;10.77;;;;;;;;;;5031147;28;20901;-43
2023/11/25 07:27:18;;;;;;;10.67;7.10;;;;;;;;;;5026000;28;20198;-43
2023/11/25 07:29:44;;;;;;;9.68;6.75;;;;;;;;;;5020724;28;20781;-43
2023/11/25 07:32:12;;;;;;;11.40;9.38;;;;;;;;;;5024188;28;20609;-43
2023/11/25 07:34:38;;;;;;;10.82;9.52;;;;;;;;;;5026440;28;20170;-44
2023/11/25 07:37:05;;;;;;;10.02;7.80;;;;;;;;;;5020387;28;20279;-43
2023/11/25 07:39:33;;;;;;;9.73;7.22;;;;;;;;;;5030138;28;20169;-43
2023/11/25 07:41:59;;;;;;;10.40;8.48;;;;;;;;;;5024598;28;20179;-43
2023/11/25 07:44:27;;;;;;;8.85;7.60;;;;;;;;;;5026077;28;20559;-43
2023/11/25 07:46:53;;;;;;;11.07;8.50;;;;;;;;;;5027556;28;20686;-43
2023/11/25 07:49:19;;;;;;;9.95;6.93;;;;;;;;;;5026260;28;20175;-43
2023/11/25 07:51:48;;;;;;;8.25;4.80;;;;;;;;;;5026134;28;20175;-44
2023/11/25 07:54:14;;;;;;;10.15;7.97;;;;;;;;;;5025988;28;20250;-43
2023/11/25 07:56:40;;;;;;;9.52;7.32;;;;;;;;;;5022363;28;20262;-43
2023/11/25 07:59:06;;;;;;;12.82;11.57;;;;;;;;;;5022795;28;20171;-43
2023/11/25 08:01:32;;;;;;;9.88;7.47;;;;;;;;;;5023747;28;20255;-43
2023/11/25 08:03:59;;;;;;;10.20;9.10;;;;;;;;;;5030272;28;20214;-44
2023/11/25 08:06:25;;;;;;;13.35;9.27;;;;;;;;;;5017439;28;20938;-42
2023/11/25 08:08:54;;;;;;;9.33;8.33;;;;;;;;;;5020798;28;20265;-43
2023/11/25 08:11:27;;;;;;;10.30;7.13;;;;;;;;;;5025350;28;20412;-42
2023/11/25 08:13:54;;;;;;;10.10;7.75;;;;;;;;;;5026732;28;20644;-43
2023/11/25 08:16:21;;;;;;;10.77;8.13;;;;;;;;;;5025345;28;20784;-43
2023/11/25 08:18:47;;;;;;;13.63;12.32;;;;;;;;;;5027401;28;20583;-43
2023/11/25 08:21:13;;;;;;;11.98;10.55;;;;;;;;;;5030280;28;20176;-43
2023/11/25 08:23:39;;;;;;;10.80;9.30;;;;;;;;;;5027251;28;20549;-43
2023/11/25 08:26:05;;;;;;;12.20;10.90;;;;;;;;;;5025107;28;20249;-43
2023/11/25 08:28:31;;;;;;;11.75;9.57;;;;;;;;;;5026204;28;20200;-43
2023/11/25 08:30:57;;;;;;;10.20;9.13;;;;;;;;;;5025405;28;20176;-43
2023/11/25 08:33:25;;;;;;;10.20;8.80;;;;;;;;;;5025222;28;20759;-43
2023/11/25 08:35:51;;;;;;;9.27;8.30;;;;;;;;;;5021121;28;20180;-44
2023/11/25 08:38:17;;;;;;;11.02;9.15;;;;;;;;;;5029746;28;20746;-43
2023/11/25 08:40:43;;;;;;;10.37;8.33;;;;;;;;;;5027542;28;20190;-43
2023/11/25 08:43:12;;;;;;;11.80;10.52;;;;;;;;;;5023671;28;20929;-42
2023/11/25 08:45:38;;;;;;;13.50;9.90;;;;;;;;;;5023725;28;20195;-42
2023/11/25 08:48:05;;;;;;;10.63;8.07;;;;;;;;;;5024845;28;20283;-43
2023/11/25 08:50:33;;;;;;;10.30;7.85;;;;;;;;;;5025076;28;20197;-43
2023/11/25 08:53:01;;;;;;;10.07;7.75;;;;;;;;;;5025226;28;20191;-44
2023/11/25 08:55:27;;;;;;;14.05;11.15;;;;;;;;;;5028466;28;20731;-43
2023/11/25 08:57:53;;;;;;;9.40;7.33;;;;;;;;;;5021300;28;20200;-43
2023/11/25 09:00:20;;;;;;;10.07;7.30;;;;;;;;;;5029898;28;20775;-43
2023/11/25 09:02:50;;;;;;;11.13;10.02;;;;;;;;;;5027549;28;20417;-43
2023/11/25 09:05:18;;;;;;;10.40;8.77;;;;;;;;;;5024646;28;20654;-43
2023/11/25 09:07:44;;;;;;;8.88;6.20;;;;;;;;;;5024480;28;20282;-43
2023/11/25 09:10:11;;;;;;;11.07;8.90;;;;;;;;;;5025544;28;20168;-43
2023/11/25 09:12:37;;;;;;;7.75;5.45;;;;;;;;;;5024681;28;20171;-43
2023/11/25 09:15:06;;;;;;;11.50;10.15;;;;;;;;;;5024420;28;20176;-43
2023/11/25 09:17:38;;;;;;;11.07;9.00;;;;;;;;;;5027894;28;20199;-43
2023/11/25 09:20:07;;;;;;;11.60;8.95;;;;;;;;;;5023337;28;20186;-43
2023/11/25 09:22:33;;;;;;;11.27;8.98;;;;;;;;;;5021124;28;20206;-43
2023/11/25 09:24:59;;;;;;;9.90;7.20;;;;;;;;;;5025227;28;20222;-44
2023/11/25 09:27:25;;;;;;;12.20;10.30;;;;;;;;;;5024050;28;20354;-43
2023/11/25 09:29:51;;;;;;;9.37;7.33;;;;;;;;;;5024143;28;20491;-43
2023/11/25 09:32:18;;;;;;;11.23;9.45;;;;;;;;;;5024317;28;20458;-43
2023/11/25 09:34:44;;;;;;;9.23;7.05;;;;;;;;;;5015170;28;20177;-43
2023/11/25 09:37:11;;;;;;;11.10;8.77;;;;;;;;;;5028448;28;20274;-44
2023/11/25 09:39:36;;;;;;;9.02;6.60;;;;;;;;;;5020632;28;20428;-43
2023/11/25 09:42:02;;;;;;;9.03;6.37;;;;;;;;;;5028689;28;20202;-44
2023/11/25 09:44:29;;;;;;;9.38;7.20;;;;;;;;;;5027705;28;20893;-43
2023/11/25 09:46:56;;;;;;;10.68;8.45;;;;;;;;;;5012855;28;20231;-43
2023/11/25 09:49:22;;;;;;;10.32;9.23;;;;;;;;;;5032701;28;20527;-42
2023/11/25 09:51:48;;;;;;;10.60;9.50;;;;;;;;;;5015494;28;20320;-43
2023/11/25 09:54:19;;;;;;;8.73;6.38;;;;;;;;;;5024735;28;20903;-43
2023/11/25 09:56:47;;;;;;;10.23;8.50;;;;;;;;;;5022803;28;20281;-42
2023/11/25 09:59:13;;;;;;;10.13;8.48;;;;;;;;;;5017462;28;20181;-43
2023/11/25 10:01:40;;;;;;;10.13;8.97;;;;;;;;;;5030829;28;20176;-43
2023/11/25 10:04:07;;;;;;;12.00;10.75;;;;;;;;;;5012222;28;20495;-43
2023/11/25 10:06:33;;;;;;;10.85;8.27;;;;;;;;;;5029375;28;20187;-44
2023/11/25 10:08:59;;;;;;;9.00;7.45;;;;;;;;;;5031304;28;20173;-44
2023/11/25 10:11:25;;;;;;;9.80;8.30;;;;;;;;;;5021912;28;20637;-43
2023/11/25 10:13:51;;;;;;;9.40;7.55;;;;;;;;;;5007037;28;20408;-44
2023/11/25 10:16:28;;;;;;;8.80;6.93;;;;;;;;;;4992960;28;20236;-43
2023/11/25 10:18:54;;;;;;;11.00;8.68;;;;;;;;;;5011955;28;20835;-43
2023/11/25 10:21:21;;;;;;;9.30;6.72;;;;;;;;;;4993950;28;20206;-44
2023/11/25 10:23:47;;;;;;;8.32;5.53;;;;;;;;;;5010243;28;20178;-43
2023/11/25 10:26:16;;;;;;;9.70;6.33;;;;;;;;;;5001638;28;20260;-44
2023/11/25 10:28:44;;;;;;;8.73;5.57;;;;;;;;;;4998564;28;20427;-42
2023/11/25 10:31:10;;;;;;;9.75;6.55;;;;;;;;;;5009287;28;20181;-43
2023/11/25 10:33:40;;;;;;;10.43;7.70;;;;;;;;;;4992258;28;20180;-43
2023/11/25 10:36:06;;;;;;;8.45;5.20;;;;;;;;;;5010749;28;20413;-43
2023/11/25 10:38:32;;;;;;;8.48;4.97;;;;;;;;;;4996913;28;20192;-43
2023/11/25 10:41:01;;;;;;;8.10;4.43;;;;;;;;;;5002922;28;20563;-44
2023/11/25 10:43:29;;;;;;;10.50;7.15;;;;;;;;;;5017014;28;20427;-43
2023/11/25 10:46:02;;;;;;;10.57;8.02;;;;;;;;;;5019144;28;20195;-42
2023/11/25 10:48:29;;;;;;;9.27;7.45;;;;;;;;;;5011927;28;20199;-43
2023/11/25 10:50:56;;;;;;;9.30;6.38;;;;;;;;;;5026350;28;20257;-43
2023/11/25 10:53:22;;;;;;;11.70;9.20;;;;;;;;;;5029058;28;20186;-42
2023/11/25 10:55:48;;;;;;;9.40;7.03;;;;;;;;;;5023053;28;20263;-44
2023/11/25 10:58:16;;;;;;;9.18;5.97;;;;;;;;;;5024561;28;20271;-43
2023/11/25 11:00:42;;;;;;;8.35;6.50;;;;;;;;;;5030161;28;20174;-43
2023/11/25 11:03:09;;;;;;;9.37;7.20;;;;;;;;;;5026908;28;20621;-43
2023/11/25 11:05:35;;;;;;;14.38;10.70;;;;;;;;;;5027159;28;20460;-43
2023/11/25 11:08:03;;;;;;;7.97;6.80;;;;;;;;;;5013815;28;20204;-43
2023/11/25 11:10:39;;;;;;;9.00;6.93;;;;;;;;;;5027368;28;20415;-43
2023/11/25 11:13:08;;;;;;;9.05;7.25;;;;;;;;;;5034699;28;20166;-43
2023/11/25 11:15:38;;;;;;;13.35;10.13;;;;;;;;;;5027874;28;20606;-43
2023/11/25 11:18:13;;;;;;;19.55;14.82;;;;;;;;;;5022651;28;20207;-43
2023/11/25 11:20:43;;;;;;;10.00;8.60;;;;;;;;;;5025497;28;20174;-43
2023/11/25 11:23:09;;;;;;;8.88;7.70;;;;;;;;;;5024393;28;20201;-43
2023/11/25 11:25:39;;;;;;;11.10;8.85;;;;;;;;;;5023485;28;20225;-43
2023/11/25 11:28:19;;;;;;;12.55;11.27;;;;;;;;;;5031000;28;20194;-43
2023/11/25 11:31:06;;;;;;;9.77;8.23;;;;;;;;;;5023059;28;20183;-43
2023/11/25 11:33:32;;;;;;;12.82;10.10;;;;;;;;;;5008436;28;20167;-43
2023/11/25 11:35:58;;;;;;;13.30;11.40;;;;;;;;;;5029093;28;20638;-43
2023/11/25 11:38:24;;;;;;;9.63;7.40;;;;;;;;;;5033375;28;20506;-44
2023/11/25 11:40:58;;;;;;;10.75;7.72;;;;;;;;;;5016903;28;20954;-43
2023/11/25 11:43:24;;;;;;;8.60;5.70;;;;;;;;;;5028919;28;20188;-44
2023/11/25 11:45:50;;;;;;;7.82;4.57;;;;;;;;;;5023913;28;20601;-44
2023/11/25 11:48:16;;;;;;;10.10;7.40;;;;;;;;;;5020516;28;20207;-44
2023/11/25 11:50:43;;;;;;;9.60;6.13;;;;;;;;;;5032091;28;20441;-44
2023/11/25 11:53:12;;;;;;;9.77;7.40;;;;;;;;;;5014680;28;20190;-43
2023/11/25 11:55:54;;;;;;;12.82;8.98;;;;;;;;;;5032341;28;20178;-44
2023/11/25 11:58:25;;;;;;;7.35;4.35;;;;;;;;;;5016594;28;20701;-43
2023/11/25 12:00:55;;;;;;;8.88;5.10;;;;;;;;;;5001290;28;20267;-44
2023/11/25 12:03:21;;;;;;;8.45;4.93;;;;;;;;;;5004095;28;20198;-43
2023/11/25 12:05:47;;;;;;;8.93;5.72;;;;;;;;;;5008391;28;20256;-43
2023/11/25 12:08:14;;;;;;;10.43;7.07;;;;;;;;;;4995838;28;20189;-43
2023/11/25 12:10:40;;;;;;;8.35;5.32;;;;;;;;;;5013530;28;20172;-43
2023/11/25 12:13:08;;;;;;;8.52;5.72;;;;;;;;;;4996921;28;20639;-43
2023/11/25 12:15:34;;;;;;;16.48;11.77;;;;;;;;;;5007444;28;20268;-43
2023/11/25 12:18:01;;;;;;;9.45;7.43;;;;;;;;;;5004582;28;20653;-44
2023/11/25 12:20:28;;;;;;;9.82;7.57;;;;;;;;;;4999856;28;20659;-43
2023/11/25 12:22:55;;;;;;;9.32;6.53;;;;;;;;;;5013772;28;20179;-43
2023/11/25 12:25:21;;;;;;;10.68;6.97;;;;;;;;;;5013850;28;20215;-44
2023/11/25 12:27:51;;;;;;;7.40;4.35;;;;;;;;;;4996740;28;20194;-44
2023/11/25 12:30:17;;;;;;;8.95;5.50;;;;;;;;;;5007658;28;20666;-43
2023/11/25 12:32:42;;;;;;;9.30;5.28;;;;;;;;;;5004221;28;20224;-43
2023/11/25 12:35:13;;;;;;;9.47;6.17;;;;;;;;;;4999619;28;20579;-43
2023/11/25 12:37:42;;;;;;;9.93;5.65;;;;;;;;;;5011153;28;20461;-42
2023/11/25 12:40:18;;;;;;;7.90;5.15;;;;;;;;;;4994091;28;20192;-44
2023/11/25 12:42:51;;;;;;;8.13;5.30;;;;;;;;;;4994072;28;20283;-44
2023/11/25 12:45:29;;;;;;;8.68;5.75;;;;;;;;;;5010260;28;20206;-43
2023/11/25 12:47:55;;;;;;;9.82;6.80;;;;;;;;;;4999196;28;20199;-43
2023/11/25 12:50:24;;;;;;;8.10;4.88;;;;;;;;;;5003884;28;20229;-44
2023/11/25 12:53:06;;;;;;;8.55;5.25;;;;;;;;;;5006992;28;20185;-43
2023/11/25 12:55:40;;;;;;;14.77;11.07;;;;;;;;;;4997944;28;20398;-43
2023/11/25 12:58:06;;;;;;;11.93;9.52;;;;;;;;;;5011623;28;20676;-43
2023/11/25 13:00:33;;;;;;;8.80;5.65;;;;;;;;;;4993803;28;20177;-43
2023/11/25 13:02:59;;;;;;;7.28;4.53;;;;;;;;;;5010875;28;20323;-43
2023/11/25 13:05:25;;;;;;;8.88;5.90;;;;;;;;;;4999274;28;20280;-44
2023/11/25 13:07:51;;;;;;;9.52;7.13;;;;;;;;;;5002424;28;20189;-43
2023/11/25 13:10:17;;;;;;;8.52;5.57;;;;;;;;;;5007841;28;20570;-42
2023/11/25 13:12:43;;;;;;;11.93;7.77;;;;;;;;;;5001885;28;20178;-43
2023/11/25 13:15:09;;;;;;;8.55;6.30;;;;;;;;;;5012893;28;20946;-42
2023/11/25 13:17:36;;;;;;;7.65;5.53;;;;;;;;;;4995695;28;20200;-43
2023/11/25 13:20:03;;;;;;;10.15;7.72;;;;;;;;;;5005881;28;20699;-44
2023/11/25 13:22:29;;;;;;;9.68;7.55;;;;;;;;;;5011153;28;20202;-43
2023/11/25 13:24:55;;;;;;;8.65;6.28;;;;;;;;;;5012103;28;20269;-43
2023/11/25 13:27:22;;;;;;;17.73;13.40;;;;;;;;;;5010396;28;20209;-43
2023/11/25 13:29:48;;;;;;;13.25;9.15;;;;;;;;;;4991138;28;20436;-43
2023/11/25 13:32:17;;;;;;;8.23;5.70;;;;;;;;;;5008859;28;20640;-43
2023/11/25 13:34:43;;;;;;;10.65;7.60;;;;;;;;;;4999022;28;20414;-43
2023/11/25 13:37:09;;;;;;;8.35;6.30;;;;;;;;;;5002002;28;20201;-43
2023/11/25 13:39:35;;;;;;;10.40;7.13;;;;;;;;;;5007841;28;20713;-42
2023/11/25 13:42:01;;;;;;;9.38;6.55;;;;;;;;;;4994051;28;20486;-43
2023/11/25 13:44:27;;;;;;;8.87;6.43;;;;;;;;;;5012667;28;20309;-43
2023/11/25 13:46:53;;;;;;;9.87;7.67;;;;;;;;;;4995961;28;20441;-43
2023/11/25 13:49:19;;;;;;;9.13;6.27;;;;;;;;;;5005787;28;20461;-43
2023/11/25 13:51:45;;;;;;;11.77;8.70;;;;;;;;;;5003998;28;20416;-43
2023/11/25 13:54:11;;;;;;;13.20;9.07;;;;;;;;;;5000274;28;20414;-43
2023/11/25 13:56:37;;;;;;;9.27;6.37;;;;;;;;;;5011616;28;20482;-43
2023/11/25 13:59:03;;;;;;;8.37;7.10;;;;;;;;;;5011378;28;20405;-43
2023/11/25 14:01:29;;;;;;;9.20;6.93;;;;;;;;;;5010792;28;20401;-43
2023/11/25 14:03:56;;;;;;;9.57;6.82;;;;;;;;;;5011722;28;20406;-43
2023/11/25 14:06:28;;;;;;;9.88;6.68;;;;;;;;;;5003531;28;20222;-43
2023/11/25 14:08:54;;;;;;;7.97;6.15;;;;;;;;;;4997080;28;20165;-42
2023/11/25 14:11:23;;;;;;;9.00;7.00;;;;;;;;;;5010709;28;20666;-43
2023/11/25 14:13:51;;;;;;;10.38;7.20;;;;;;;;;;5003553;28;20646;-43
2023/11/25 14:16:17;;;;;;;7.95;5.10;;;;;;;;;;5006113;28;20200;-43
2023/11/25 14:18:43;;;;;;;8.35;5.55;;;;;;;;;;4998681;28;20181;-43
2023/11/25 14:21:09;;;;;;;25.73;18.90;;;;;;;;;;5005880;28;20178;-43
2023/11/25 14:23:36;;;;;;;12.50;11.40;;;;;;;;;;5011058;28;20647;-43
2023/11/25 14:26:04;;;;;;;9.80;7.50;;;;;;;;;;5018093;28;20599;-43
2023/11/25 14:28:31;;;;;;;14.90;13.68;;;;;;;;;;5008443;28;20273;-43
2023/11/25 14:30:57;;;;;;;10.10;7.25;;;;;;;;;;5009441;28;20186;-43